Bjerringbro, Denmark
Current Conditions -  °F | °C
As of 7:20 PM on Monday 26 Jan 2015 (Local Time) from EKKA Reporting Station
Light Rain Light Rain  
Wind Chill: 30°   Ceiling: 2000
Heat Index: 37°   Visibility: 6mi
Dew Point: 37°   Wind: 10mph
Humidity: 100%   Direction: 280°W
Pressure: 29.77"   Gusts: NA
Location:  56.38°N, 9.66°E
Report Text: EKKA 261820Z AUTO 28009KT 9999NDV -RA BKN020/// BKN130///03/03 Q1008
Loading
Personal Weather Stations






























Interactive Weather Map New forecast layout! Learn more

10-Day Weather Forecast

Advertisements
Track Severe Weather on mobile